sensor_id;sensor_type;location;lat;lon;timestamp;temperature;humidity
3756;DHT22;1893;52.526;13.360;2023-08-07T00:00:27;14.50;99.90
3756;DHT22;1893;52.526;13.360;2023-08-07T00:02:53;14.50;99.90
3756;DHT22;1893;52.526;13.360;2023-08-07T00:05:19;14.60;99.90
3756;DHT22;1893;52.526;13.360;2023-08-07T00:07:44;14.50;99.90
3756;DHT22;1893;52.526;13.360;2023-08-07T00:10:11;14.60;99.90
3756;DHT22;1893;52.526;13.360;2023-08-07T00:12:36;14.50;99.90
3756;DHT22;1893;52.526;13.360;2023-08-07T00:15:03;14.60;99.90
3756;DHT22;1893;52.526;13.360;2023-08-07T00:17:28;14.60;99.90
3756;DHT22;1893;52.526;13.360;2023-08-07T00:19:54;14.60;99.90
3756;DHT22;1893;52.526;13.360;2023-08-07T00:22:20;14.60;99.90
3756;DHT22;1893;52.526;13.360;2023-08-07T00:24:45;14.60;99.90
3756;DHT22;1893;52.526;13.360;2023-08-07T00:27:11;14.60;99.90
3756;DHT22;1893;52.526;13.360;2023-08-07T00:29:38;14.70;99.90
3756;DHT22;1893;52.526;13.360;2023-08-07T00:32:04;14.70;99.90
3756;DHT22;1893;52.526;13.360;2023-08-07T00:34:29;14.60;99.90
3756;DHT22;1893;52.526;13.360;2023-08-07T00:36:55;14.60;99.90
3756;DHT22;1893;52.526;13.360;2023-08-07T00:39:21;14.70;99.90
3756;DHT22;1893;52.526;13.360;2023-08-07T00:41:47;14.70;99.90
3756;DHT22;1893;52.526;13.360;2023-08-07T00:44:13;14.70;99.90
3756;DHT22;1893;52.526;13.360;2023-08-07T00:46:39;14.70;99.90
3756;DHT22;1893;52.526;13.360;2023-08-07T00:49:05;14.70;99.90
3756;DHT22;1893;52.526;13.360;2023-08-07T00:51:32;14.70;99.90
3756;DHT22;1893;52.526;13.360;2023-08-07T00:53:58;14.60;99.90
3756;DHT22;1893;52.526;13.360;2023-08-07T00:56:26;14.60;99.90
3756;DHT22;1893;52.526;13.360;2023-08-07T00:58:51;14.70;99.90
3756;DHT22;1893;52.526;13.360;2023-08-07T01:01:17;14.70;99.90
3756;DHT22;1893;52.526;13.360;2023-08-07T01:03:44;14.70;99.90
3756;DHT22;1893;52.526;13.360;2023-08-07T01:06:09;14.70;99.90
3756;DHT22;1893;52.526;13.360;2023-08-07T01:08:35;14.70;99.90
3756;DHT22;1893;52.526;13.360;2023-08-07T01:11:30;14.80;99.90
3756;DHT22;1893;52.526;13.360;2023-08-07T01:19:26;14.70;99.90
3756;DHT22;1893;52.526;13.360;2023-08-07T01:24:38;14.80;99.90
3756;DHT22;1893;52.526;13.360;2023-08-07T01:32:11;14.70;99.90
3756;DHT22;1893;52.526;13.360;2023-08-07T01:34:41;14.70;99.90
3756;DHT22;1893;52.526;13.360;2023-08-07T01:37:07;14.60;99.90
3756;DHT22;1893;52.526;13.360;2023-08-07T01:39:35;14.70;99.90
3756;DHT22;1893;52.526;13.360;2023-08-07T01:42:04;14.70;99.90
3756;DHT22;1893;52.526;13.360;2023-08-07T01:44:30;14.70;99.90
3756;DHT22;1893;52.526;13.360;2023-08-07T01:46:56;14.70;99.90
3756;DHT22;1893;52.526;13.360;2023-08-07T01:49:22;14.70;99.90
3756;DHT22;1893;52.526;13.360;2023-08-07T01:51:47;14.60;99.90
3756;DHT22;1893;52.526;13.360;2023-08-07T01:54:13;14.70;99.90
3756;DHT22;1893;52.526;13.360;2023-08-07T01:56:38;14.60;99.90
3756;DHT22;1893;52.526;13.360;2023-08-07T01:59:04;14.60;99.90
3756;DHT22;1893;52.526;13.360;2023-08-07T02:01:30;14.60;99.90
3756;DHT22;1893;52.526;13.360;2023-08-07T02:03:55;14.60;99.90
3756;DHT22;1893;52.526;13.360;2023-08-07T02:06:21;14.50;99.90
3756;DHT22;1893;52.526;13.360;2023-08-07T02:08:47;14.50;99.90
3756;DHT22;1893;52.526;13.360;2023-08-07T02:11:12;14.50;99.90
3756;DHT22;1893;52.526;13.360;2023-08-07T02:13:38;14.50;99.90
3756;DHT22;1893;52.526;13.360;2023-08-07T02:16:04;14.50;99.90
3756;DHT22;1893;52.526;13.360;2023-08-07T02:18:30;14.50;99.90
3756;DHT22;1893;52.526;13.360;2023-08-07T02:20:55;14.50;99.90
3756;DHT22;1893;52.526;13.360;2023-08-07T02:23:21;14.50;99.90
3756;DHT22;1893;52.526;13.360;2023-08-07T02:25:48;14.50;99.90
3756;DHT22;1893;52.526;13.360;2023-08-07T02:28:14;14.50;99.90
3756;DHT22;1893;52.526;13.360;2023-08-07T02:30:39;14.50;99.90
3756;DHT22;1893;52.526;13.360;2023-08-07T02:33:05;14.50;99.90
3756;DHT22;1893;52.526;13.360;2023-08-07T02:35:31;14.50;99.90
3756;DHT22;1893;52.526;13.360;2023-08-07T02:37:56;14.60;99.90
3756;DHT22;1893;52.526;13.360;2023-08-07T02:40:22;14.50;99.90
3756;DHT22;1893;52.526;13.360;2023-08-07T02:42:47;14.60;99.90
3756;DHT22;1893;52.526;13.360;2023-08-07T02:45:13;14.60;99.90
3756;DHT22;1893;52.526;13.360;2023-08-07T02:47:39;14.70;99.90
3756;DHT22;1893;52.526;13.360;2023-08-07T02:50:04;14.70;99.90
3756;DHT22;1893;52.526;13.360;2023-08-07T02:52:30;14.70;99.90
3756;DHT22;1893;52.526;13.360;2023-08-07T02:54:56;14.70;99.90
3756;DHT22;1893;52.526;13.360;2023-08-07T02:57:21;14.80;99.90
3756;DHT22;1893;52.526;13.360;2023-08-07T02:59:47;14.80;99.90
3756;DHT22;1893;52.526;13.360;2023-08-07T03:02:12;14.80;99.90
3756;DHT22;1893;52.526;13.360;2023-08-07T03:04:38;14.80;99.90
3756;DHT22;1893;52.526;13.360;2023-08-07T03:07:04;14.80;99.90
3756;DHT22;1893;52.526;13.360;2023-08-07T03:09:29;14.80;99.90
3756;DHT22;1893;52.526;13.360;2023-08-07T03:11:55;14.90;99.90
3756;DHT22;1893;52.526;13.360;2023-08-07T03:14:21;14.80;99.90
3756;DHT22;1893;52.526;13.360;2023-08-07T03:16:46;14.80;99.90
3756;DHT22;1893;52.526;13.360;2023-08-07T03:19:12;14.80;99.90
3756;DHT22;1893;52.526;13.360;2023-08-07T03:21:38;14.80;99.90
3756;DHT22;1893;52.526;13.360;2023-08-07T03:24:04;14.80;99.90
3756;DHT22;1893;52.526;13.360;2023-08-07T03:26:30;14.80;99.90
3756;DHT22;1893;52.526;13.360;2023-08-07T03:28:55;14.80;99.90
3756;DHT22;1893;52.526;13.360;2023-08-07T03:31:21;14.80;99.90
3756;DHT22;1893;52.526;13.360;2023-08-07T03:33:46;14.80;99.90
3756;DHT22;1893;52.526;13.360;2023-08-07T03:36:12;14.80;99.90
3756;DHT22;1893;52.526;13.360;2023-08-07T03:38:38;14.80;99.90
3756;DHT22;1893;52.526;13.360;2023-08-07T03:41:03;14.80;99.90
3756;DHT22;1893;52.526;13.360;2023-08-07T03:43:29;14.80;99.90
3756;DHT22;1893;52.526;13.360;2023-08-07T03:45:55;14.80;99.90
3756;DHT22;1893;52.526;13.360;2023-08-07T03:48:22;14.80;99.90
3756;DHT22;1893;52.526;13.360;2023-08-07T03:50:47;14.80;99.90
3756;DHT22;1893;52.526;13.360;2023-08-07T03:53:13;14.80;99.90
3756;DHT22;1893;52.526;13.360;2023-08-07T03:55:38;14.80;99.90
3756;DHT22;1893;52.526;13.360;2023-08-07T03:58:05;14.80;99.90
3756;DHT22;1893;52.526;13.360;2023-08-07T04:00:30;14.80;99.90
3756;DHT22;1893;52.526;13.360;2023-08-07T04:02:56;14.80;99.90
3756;DHT22;1893;52.526;13.360;2023-08-07T04:05:22;14.90;99.90
3756;DHT22;1893;52.526;13.360;2023-08-07T04:07:48;14.80;99.90
3756;DHT22;1893;52.526;13.360;2023-08-07T04:10:13;14.80;99.90
3756;DHT22;1893;52.526;13.360;2023-08-07T04:12:39;14.80;99.90
3756;DHT22;1893;52.526;13.360;2023-08-07T04:15:05;14.80;99.90
3756;DHT22;1893;52.526;13.360;2023-08-07T04:17:32;14.90;99.90
3756;DHT22;1893;52.526;13.360;2023-08-07T04:19:57;14.90;99.90
3756;DHT22;1893;52.526;13.360;2023-08-07T04:22:23;14.90;99.90
3756;DHT22;1893;52.526;13.360;2023-08-07T04:24:48;14.90;99.90
3756;DHT22;1893;52.526;13.360;2023-08-07T04:27:14;14.90;99.90
3756;DHT22;1893;52.526;13.360;2023-08-07T04:29:41;15.00;99.90
3756;DHT22;1893;52.526;13.360;2023-08-07T04:32:07;15.00;99.90
3756;DHT22;1893;52.526;13.360;2023-08-07T04:34:32;14.90;99.90
3756;DHT22;1893;52.526;13.360;2023-08-07T04:36:58;14.90;99.90
3756;DHT22;1893;52.526;13.360;2023-08-07T04:39:23;14.90;99.90
3756;DHT22;1893;52.526;13.360;2023-08-07T04:41:49;15.00;99.90
3756;DHT22;1893;52.526;13.360;2023-08-07T04:44:16;15.00;99.90
3756;DHT22;1893;52.526;13.360;2023-08-07T04:46:41;15.00;99.90
3756;DHT22;1893;52.526;13.360;2023-08-07T04:49:07;15.10;99.90
3756;DHT22;1893;52.526;13.360;2023-08-07T04:51:33;15.00;99.90
3756;DHT22;1893;52.526;13.360;2023-08-07T04:53:58;15.00;99.90
3756;DHT22;1893;52.526;13.360;2023-08-07T04:56:24;15.00;99.90
3756;DHT22;1893;52.526;13.360;2023-08-07T04:58:50;15.10;99.90
3756;DHT22;1893;52.526;13.360;2023-08-07T05:01:15;15.10;99.90
3756;DHT22;1893;52.526;13.360;2023-08-07T05:03:41;15.00;99.90
3756;DHT22;1893;52.526;13.360;2023-08-07T05:06:06;15.10;99.90
3756;DHT22;1893;52.526;13.360;2023-08-07T05:08:32;15.10;99.90
3756;DHT22;1893;52.526;13.360;2023-08-07T05:10:58;15.20;99.90
3756;DHT22;1893;52.526;13.360;2023-08-07T05:13:23;15.10;99.90
3756;DHT22;1893;52.526;13.360;2023-08-07T05:15:49;15.10;99.90
3756;DHT22;1893;52.526;13.360;2023-08-07T05:18:15;15.00;99.90
3756;DHT22;1893;52.526;13.360;2023-08-07T05:20:41;15.00;99.90
3756;DHT22;1893;52.526;13.360;2023-08-07T05:23:07;15.00;99.90
3756;DHT22;1893;52.526;13.360;2023-08-07T05:25:32;15.00;99.90
3756;DHT22;1893;52.526;13.360;2023-08-07T05:27:58;15.00;99.90
3756;DHT22;1893;52.526;13.360;2023-08-07T05:30:24;15.00;99.90
3756;DHT22;1893;52.526;13.360;2023-08-07T05:32:49;15.00;99.90
3756;DHT22;1893;52.526;13.360;2023-08-07T05:35:15;15.00;99.90
3756;DHT22;1893;52.526;13.360;2023-08-07T05:37:40;15.00;99.90
3756;DHT22;1893;52.526;13.360;2023-08-07T05:40:06;15.00;99.90
3756;DHT22;1893;52.526;13.360;2023-08-07T05:42:32;15.00;99.90
3756;DHT22;1893;52.526;13.360;2023-08-07T05:44:58;15.00;99.90
3756;DHT22;1893;52.526;13.360;2023-08-07T05:47:24;15.00;99.90
3756;DHT22;1893;52.526;13.360;2023-08-07T05:49:50;15.00;99.90
3756;DHT22;1893;52.526;13.360;2023-08-07T05:52:16;15.00;99.90
3756;DHT22;1893;52.526;13.360;2023-08-07T05:54:42;15.10;99.90
3756;DHT22;1893;52.526;13.360;2023-08-07T05:57:08;15.10;99.90
3756;DHT22;1893;52.526;13.360;2023-08-07T05:59:33;15.10;99.90
3756;DHT22;1893;52.526;13.360;2023-08-07T06:02:00;15.20;99.90
3756;DHT22;1893;52.526;13.360;2023-08-07T06:04:25;15.30;99.90
3756;DHT22;1893;52.526;13.360;2023-08-07T06:06:51;15.30;99.90
3756;DHT22;1893;52.526;13.360;2023-08-07T06:09:17;15.30;99.90
3756;DHT22;1893;52.526;13.360;2023-08-07T06:11:43;15.40;99.90
3756;DHT22;1893;52.526;13.360;2023-08-07T06:14:08;15.50;99.90
3756;DHT22;1893;52.526;13.360;2023-08-07T06:16:34;15.50;99.90
3756;DHT22;1893;52.526;13.360;2023-08-07T06:19:00;15.60;99.90
3756;DHT22;1893;52.526;13.360;2023-08-07T06:21:25;15.70;99.90
3756;DHT22;1893;52.526;13.360;2023-08-07T06:23:53;15.80;99.90
3756;DHT22;1893;52.526;13.360;2023-08-07T06:26:19;15.90;99.90
3756;DHT22;1893;52.526;13.360;2023-08-07T06:28:45;16.00;99.90
3756;DHT22;1893;52.526;13.360;2023-08-07T06:31:11;16.10;99.90
3756;DHT22;1893;52.526;13.360;2023-08-07T06:33:37;16.10;99.90
3756;DHT22;1893;52.526;13.360;2023-08-07T06:36:03;16.20;99.90
3756;DHT22;1893;52.526;13.360;2023-08-07T06:38:29;16.20;99.90
3756;DHT22;1893;52.526;13.360;2023-08-07T06:40:56;16.20;99.90
3756;DHT22;1893;52.526;13.360;2023-08-07T06:43:21;16.10;99.90
3756;DHT22;1893;52.526;13.360;2023-08-07T06:45:49;16.20;99.90
3756;DHT22;1893;52.526;13.360;2023-08-07T06:48:15;16.20;99.90
3756;DHT22;1893;52.526;13.360;2023-08-07T06:50:41;16.30;99.90
3756;DHT22;1893;52.526;13.360;2023-08-07T06:53:06;16.30;99.90
3756;DHT22;1893;52.526;13.360;2023-08-07T06:55:32;16.40;99.90
3756;DHT22;1893;52.526;13.360;2023-08-07T06:57:58;16.40;99.90
3756;DHT22;1893;52.526;13.360;2023-08-07T07:00:24;16.50;99.90
3756;DHT22;1893;52.526;13.360;2023-08-07T07:02:50;16.60;99.90
3756;DHT22;1893;52.526;13.360;2023-08-07T07:05:15;16.60;99.90
3756;DHT22;1893;52.526;13.360;2023-08-07T07:07:41;16.70;99.90
3756;DHT22;1893;52.526;13.360;2023-08-07T07:10:07;16.70;99.90
3756;DHT22;1893;52.526;13.360;2023-08-07T07:12:33;16.70;99.90
3756;DHT22;1893;52.526;13.360;2023-08-07T07:14:58;16.80;99.90
3756;DHT22;1893;52.526;13.360;2023-08-07T07:17:24;17.00;99.90
3756;DHT22;1893;52.526;13.360;2023-08-07T07:19:49;17.10;99.90
3756;DHT22;1893;52.526;13.360;2023-08-07T07:22:15;17.20;99.90
3756;DHT22;1893;52.526;13.360;2023-08-07T07:24:41;17.40;99.90
3756;DHT22;1893;52.526;13.360;2023-08-07T07:27:06;17.30;99.90
3756;DHT22;1893;52.526;13.360;2023-08-07T07:29:32;17.30;99.90
3756;DHT22;1893;52.526;13.360;2023-08-07T07:31:58;17.40;99.90
3756;DHT22;1893;52.526;13.360;2023-08-07T07:34:23;17.50;99.90
3756;DHT22;1893;52.526;13.360;2023-08-07T07:36:49;17.50;99.90
3756;DHT22;1893;52.526;13.360;2023-08-07T07:39:16;17.50;99.90
3756;DHT22;1893;52.526;13.360;2023-08-07T07:41:41;17.60;99.90
3756;DHT22;1893;52.526;13.360;2023-08-07T07:44:07;17.50;99.90
3756;DHT22;1893;52.526;13.360;2023-08-07T07:46:33;17.50;99.90
3756;DHT22;1893;52.526;13.360;2023-08-07T07:48:59;17.60;99.90
3756;DHT22;1893;52.526;13.360;2023-08-07T07:51:25;17.70;99.90
3756;DHT22;1893;52.526;13.360;2023-08-07T07:53:50;17.50;99.90
3756;DHT22;1893;52.526;13.360;2023-08-07T07:56:16;17.60;99.90
3756;DHT22;1893;52.526;13.360;2023-08-07T07:58:42;17.50;99.90
3756;DHT22;1893;52.526;13.360;2023-08-07T08:01:08;17.60;99.90
3756;DHT22;1893;52.526;13.360;2023-08-07T08:03:33;17.60;99.90
3756;DHT22;1893;52.526;13.360;2023-08-07T08:05:59;17.70;99.90
3756;DHT22;1893;52.526;13.360;2023-08-07T08:08:25;17.70;99.90
3756;DHT22;1893;52.526;13.360;2023-08-07T08:10:51;17.70;99.90
3756;DHT22;1893;52.526;13.360;2023-08-07T08:13:17;17.70;99.90
3756;DHT22;1893;52.526;13.360;2023-08-07T08:15:43;17.80;99.90
3756;DHT22;1893;52.526;13.360;2023-08-07T08:18:09;17.80;99.90
3756;DHT22;1893;52.526;13.360;2023-08-07T08:20:35;17.70;99.90
3756;DHT22;1893;52.526;13.360;2023-08-07T08:23:01;17.70;99.90
3756;DHT22;1893;52.526;13.360;2023-08-07T08:25:26;17.70;99.90
3756;DHT22;1893;52.526;13.360;2023-08-07T08:27:52;17.70;99.90
3756;DHT22;1893;52.526;13.360;2023-08-07T08:30:18;17.70;99.90
3756;DHT22;1893;52.526;13.360;2023-08-07T08:32:43;17.50;99.90
3756;DHT22;1893;52.526;13.360;2023-08-07T08:35:09;17.40;99.90
3756;DHT22;1893;52.526;13.360;2023-08-07T08:37:35;17.50;99.90
3756;DHT22;1893;52.526;13.360;2023-08-07T08:40:01;17.50;99.90
3756;DHT22;1893;52.526;13.360;2023-08-07T08:42:27;17.60;99.90
3756;DHT22;1893;52.526;13.360;2023-08-07T08:44:55;17.80;99.90
3756;DHT22;1893;52.526;13.360;2023-08-07T08:47:22;17.70;99.90
3756;DHT22;1893;52.526;13.360;2023-08-07T08:49:51;17.90;99.90
3756;DHT22;1893;52.526;13.360;2023-08-07T08:52:21;17.80;99.90
3756;DHT22;1893;52.526;13.360;2023-08-07T08:54:47;18.10;99.90
3756;DHT22;1893;52.526;13.360;2023-08-07T08:57:13;18.20;99.90
3756;DHT22;1893;52.526;13.360;2023-08-07T08:59:41;18.30;99.90
3756;DHT22;1893;52.526;13.360;2023-08-07T09:02:08;18.30;99.90
3756;DHT22;1893;52.526;13.360;2023-08-07T09:04:33;18.10;99.90
3756;DHT22;1893;52.526;13.360;2023-08-07T09:07:01;18.20;99.90
3756;DHT22;1893;52.526;13.360;2023-08-07T09:09:27;18.30;99.90
3756;DHT22;1893;52.526;13.360;2023-08-07T09:11:53;18.40;99.90
3756;DHT22;1893;52.526;13.360;2023-08-07T09:14:24;18.50;99.90
3756;DHT22;1893;52.526;13.360;2023-08-07T09:16:52;18.50;99.90
3756;DHT22;1893;52.526;13.360;2023-08-07T09:19:19;18.20;99.90
3756;DHT22;1893;52.526;13.360;2023-08-07T09:21:44;17.90;99.90
3756;DHT22;1893;52.526;13.360;2023-08-07T09:24:10;17.90;99.90
3756;DHT22;1893;52.526;13.360;2023-08-07T09:26:42;18.00;99.90
3756;DHT22;1893;52.526;13.360;2023-08-07T09:29:10;18.10;99.90
3756;DHT22;1893;52.526;13.360;2023-08-07T09:31:36;18.40;99.90
3756;DHT22;1893;52.526;13.360;2023-08-07T09:34:03;18.60;99.90
3756;DHT22;1893;52.526;13.360;2023-08-07T09:36:33;18.90;99.90
3756;DHT22;1893;52.526;13.360;2023-08-07T09:39:03;18.80;99.90
3756;DHT22;1893;52.526;13.360;2023-08-07T09:41:30;18.60;99.90
3756;DHT22;1893;52.526;13.360;2023-08-07T09:43:56;18.70;99.90
3756;DHT22;1893;52.526;13.360;2023-08-07T09:46:23;18.50;99.90
3756;DHT22;1893;52.526;13.360;2023-08-07T09:48:50;18.50;99.90
3756;DHT22;1893;52.526;13.360;2023-08-07T09:51:16;18.30;99.90
3756;DHT22;1893;52.526;13.360;2023-08-07T09:53:41;18.50;99.90
3756;DHT22;1893;52.526;13.360;2023-08-07T09:56:07;18.50;99.90
3756;DHT22;1893;52.526;13.360;2023-08-07T09:58:33;18.50;99.90
3756;DHT22;1893;52.526;13.360;2023-08-07T10:01:05;18.30;99.90
3756;DHT22;1893;52.526;13.360;2023-08-07T10:03:32;18.30;99.90
3756;DHT22;1893;52.526;13.360;2023-08-07T10:05:58;18.40;99.90
3756;DHT22;1893;52.526;13.360;2023-08-07T10:08:24;18.40;99.90
3756;DHT22;1893;52.526;13.360;2023-08-07T10:10:51;18.70;99.90
3756;DHT22;1893;52.526;13.360;2023-08-07T10:13:18;18.70;99.90
3756;DHT22;1893;52.526;13.360;2023-08-07T10:15:44;18.80;99.90
3756;DHT22;1893;52.526;13.360;2023-08-07T10:18:11;18.60;99.90
3756;DHT22;1893;52.526;13.360;2023-08-07T10:20:38;18.80;99.90
3756;DHT22;1893;52.526;13.360;2023-08-07T10:23:09;18.90;99.90
3756;DHT22;1893;52.526;13.360;2023-08-07T10:25:37;18.90;99.90
3756;DHT22;1893;52.526;13.360;2023-08-07T10:28:05;18.90;99.90
3756;DHT22;1893;52.526;13.360;2023-08-07T10:30:32;18.90;99.90
3756;DHT22;1893;52.526;13.360;2023-08-07T10:32:58;19.10;99.90
3756;DHT22;1893;52.526;13.360;2023-08-07T10:35:32;18.90;99.90
3756;DHT22;1893;52.526;13.360;2023-08-07T10:38:07;19.00;99.90
3756;DHT22;1893;52.526;13.360;2023-08-07T10:40:34;19.00;99.90
3756;DHT22;1893;52.526;13.360;2023-08-07T10:43:13;19.20;99.90
3756;DHT22;1893;52.526;13.360;2023-08-07T10:45:42;19.20;99.90
3756;DHT22;1893;52.526;13.360;2023-08-07T10:48:11;19.20;99.90
3756;DHT22;1893;52.526;13.360;2023-08-07T10:50:58;19.40;99.90
3756;DHT22;1893;52.526;13.360;2023-08-07T10:53:40;19.30;99.90
3756;DHT22;1893;52.526;13.360;2023-08-07T10:56:09;19.20;99.90
3756;DHT22;1893;52.526;13.360;2023-08-07T10:58:37;19.20;99.90
3756;DHT22;1893;52.526;13.360;2023-08-07T11:01:27;19.10;99.90
3756;DHT22;1893;52.526;13.360;2023-08-07T11:04:00;19.00;99.90
3756;DHT22;1893;52.526;13.360;2023-08-07T11:06:31;19.10;99.90
3756;DHT22;1893;52.526;13.360;2023-08-07T11:09:00;18.70;99.90
3756;DHT22;1893;52.526;13.360;2023-08-07T11:11:29;18.10;99.90
3756;DHT22;1893;52.526;13.360;2023-08-07T11:13:54;17.60;99.90
3756;DHT22;1893;52.526;13.360;2023-08-07T11:16:20;17.40;99.90
3756;DHT22;1893;52.526;13.360;2023-08-07T11:18:48;17.40;99.90
3756;DHT22;1893;52.526;13.360;2023-08-07T11:21:14;17.10;99.90
3756;DHT22;1893;52.526;13.360;2023-08-07T11:23:40;17.00;99.90
3756;DHT22;1893;52.526;13.360;2023-08-07T11:26:07;17.10;99.90
3756;DHT22;1893;52.526;13.360;2023-08-07T11:28:33;17.00;99.90
3756;DHT22;1893;52.526;13.360;2023-08-07T11:30:59;16.90;99.90
3756;DHT22;1893;52.526;13.360;2023-08-07T11:33:26;16.90;99.90
3756;DHT22;1893;52.526;13.360;2023-08-07T11:35:52;17.10;99.90
3756;DHT22;1893;52.526;13.360;2023-08-07T11:38:34;17.10;99.90
3756;DHT22;1893;52.526;13.360;2023-08-07T11:41:01;17.10;99.90
3756;DHT22;1893;52.526;13.360;2023-08-07T11:43:28;17.10;99.90
3756;DHT22;1893;52.526;13.360;2023-08-07T11:45:55;17.20;99.90
3756;DHT22;1893;52.526;13.360;2023-08-07T11:48:23;17.50;99.90
3756;DHT22;1893;52.526;13.360;2023-08-07T11:50:51;17.70;99.90
3756;DHT22;1893;52.526;13.360;2023-08-07T11:53:16;18.00;99.90
3756;DHT22;1893;52.526;13.360;2023-08-07T11:55:52;18.30;99.90
3756;DHT22;1893;52.526;13.360;2023-08-07T11:58:20;18.70;99.90
3756;DHT22;1893;52.526;13.360;2023-08-07T12:00:46;18.60;99.90
3756;DHT22;1893;52.526;13.360;2023-08-07T12:03:27;18.80;99.90
3756;DHT22;1893;52.526;13.360;2023-08-07T12:05:58;18.90;99.90
3756;DHT22;1893;52.526;13.360;2023-08-07T12:08:24;18.90;99.90
3756;DHT22;1893;52.526;13.360;2023-08-07T12:10:53;18.80;99.90
3756;DHT22;1893;52.526;13.360;2023-08-07T12:13:26;18.70;99.90
3756;DHT22;1893;52.526;13.360;2023-08-07T12:15:56;18.80;99.90
3756;DHT22;1893;52.526;13.360;2023-08-07T12:18:23;18.70;99.90
3756;DHT22;1893;52.526;13.360;2023-08-07T12:20:50;18.60;99.90
3756;DHT22;1893;52.526;13.360;2023-08-07T12:23:17;18.70;99.90
3756;DHT22;1893;52.526;13.360;2023-08-07T12:25:43;18.80;99.90
3756;DHT22;1893;52.526;13.360;2023-08-07T12:28:09;19.00;99.90
3756;DHT22;1893;52.526;13.360;2023-08-07T12:30:36;19.00;99.90
3756;DHT22;1893;52.526;13.360;2023-08-07T12:33:02;18.90;99.90
3756;DHT22;1893;52.526;13.360;2023-08-07T12:35:31;18.90;99.90
3756;DHT22;1893;52.526;13.360;2023-08-07T12:37:57;18.80;99.90
3756;DHT22;1893;52.526;13.360;2023-08-07T12:40:23;18.80;99.90
3756;DHT22;1893;52.526;13.360;2023-08-07T12:42:49;18.60;99.90
3756;DHT22;1893;52.526;13.360;2023-08-07T12:45:15;18.50;99.90
3756;DHT22;1893;52.526;13.360;2023-08-07T12:47:42;18.50;99.90
3756;DHT22;1893;52.526;13.360;2023-08-07T12:50:08;18.60;99.90
3756;DHT22;1893;52.526;13.360;2023-08-07T12:52:34;18.60;99.90
3756;DHT22;1893;52.526;13.360;2023-08-07T12:55:00;18.70;99.90
3756;DHT22;1893;52.526;13.360;2023-08-07T12:57:26;18.60;99.90
3756;DHT22;1893;52.526;13.360;2023-08-07T12:59:51;18.60;99.90
3756;DHT22;1893;52.526;13.360;2023-08-07T13:02:17;18.50;99.90
3756;DHT22;1893;52.526;13.360;2023-08-07T13:04:43;18.60;99.90
3756;DHT22;1893;52.526;13.360;2023-08-07T13:07:08;18.90;99.90
3756;DHT22;1893;52.526;13.360;2023-08-07T13:09:34;19.30;99.90
3756;DHT22;1893;52.526;13.360;2023-08-07T13:12:00;19.80;99.90
3756;DHT22;1893;52.526;13.360;2023-08-07T13:14:25;20.20;99.90
3756;DHT22;1893;52.526;13.360;2023-08-07T13:16:51;20.10;99.90
3756;DHT22;1893;52.526;13.360;2023-08-07T13:19:17;19.80;99.90
3756;DHT22;1893;52.526;13.360;2023-08-07T13:21:43;19.70;99.90
3756;DHT22;1893;52.526;13.360;2023-08-07T13:24:09;19.90;99.90
3756;DHT22;1893;52.526;13.360;2023-08-07T13:26:34;19.90;99.90
3756;DHT22;1893;52.526;13.360;2023-08-07T13:29:00;19.80;99.90
3756;DHT22;1893;52.526;13.360;2023-08-07T13:31:26;19.90;99.90
3756;DHT22;1893;52.526;13.360;2023-08-07T13:33:52;20.20;99.90
3756;DHT22;1893;52.526;13.360;2023-08-07T13:36:17;20.20;99.90
3756;DHT22;1893;52.526;13.360;2023-08-07T13:38:43;19.90;99.90
3756;DHT22;1893;52.526;13.360;2023-08-07T13:41:09;19.70;99.90
3756;DHT22;1893;52.526;13.360;2023-08-07T13:43:34;19.70;99.90
3756;DHT22;1893;52.526;13.360;2023-08-07T13:46:00;19.90;99.90
3756;DHT22;1893;52.526;13.360;2023-08-07T13:48:25;20.10;99.90
3756;DHT22;1893;52.526;13.360;2023-08-07T13:50:53;20.10;99.90
3756;DHT22;1893;52.526;13.360;2023-08-07T13:53:19;20.20;99.90
3756;DHT22;1893;52.526;13.360;2023-08-07T13:55:46;20.10;99.90
3756;DHT22;1893;52.526;13.360;2023-08-07T13:58:12;20.20;99.90
3756;DHT22;1893;52.526;13.360;2023-08-07T14:00:40;20.00;99.90
3756;DHT22;1893;52.526;13.360;2023-08-07T14:03:08;19.90;99.90
3756;DHT22;1893;52.526;13.360;2023-08-07T14:05:34;19.60;99.90
3756;DHT22;1893;52.526;13.360;2023-08-07T14:07:59;19.50;99.90
3756;DHT22;1893;52.526;13.360;2023-08-07T14:10:25;19.50;99.90
3756;DHT22;1893;52.526;13.360;2023-08-07T14:12:51;19.50;99.90
3756;DHT22;1893;52.526;13.360;2023-08-07T14:15:17;19.50;99.90
3756;DHT22;1893;52.526;13.360;2023-08-07T14:17:43;19.60;99.90
3756;DHT22;1893;52.526;13.360;2023-08-07T14:20:09;19.60;99.90
3756;DHT22;1893;52.526;13.360;2023-08-07T14:22:36;19.50;99.90
3756;DHT22;1893;52.526;13.360;2023-08-07T14:25:03;19.40;99.90
3756;DHT22;1893;52.526;13.360;2023-08-07T14:27:30;19.40;99.90
3756;DHT22;1893;52.526;13.360;2023-08-07T14:29:56;19.30;99.90
3756;DHT22;1893;52.526;13.360;2023-08-07T14:32:21;19.20;99.90
3756;DHT22;1893;52.526;13.360;2023-08-07T14:34:47;19.30;99.90
3756;DHT22;1893;52.526;13.360;2023-08-07T14:37:14;19.40;99.90
3756;DHT22;1893;52.526;13.360;2023-08-07T14:39:40;19.40;99.90
3756;DHT22;1893;52.526;13.360;2023-08-07T14:42:06;19.50;99.90
3756;DHT22;1893;52.526;13.360;2023-08-07T14:44:32;19.70;99.90
3756;DHT22;1893;52.526;13.360;2023-08-07T14:46:58;19.80;99.90
3756;DHT22;1893;52.526;13.360;2023-08-07T14:49:24;19.90;99.90
3756;DHT22;1893;52.526;13.360;2023-08-07T14:51:49;20.00;99.90
3756;DHT22;1893;52.526;13.360;2023-08-07T14:54:15;19.80;99.90
3756;DHT22;1893;52.526;13.360;2023-08-07T14:56:41;19.60;99.90
3756;DHT22;1893;52.526;13.360;2023-08-07T14:59:06;19.40;99.90
3756;DHT22;1893;52.526;13.360;2023-08-07T15:01:32;19.20;99.90
3756;DHT22;1893;52.526;13.360;2023-08-07T15:03:58;19.00;99.90
3756;DHT22;1893;52.526;13.360;2023-08-07T15:06:23;19.00;99.90
3756;DHT22;1893;52.526;13.360;2023-08-07T15:08:49;19.00;99.90
3756;DHT22;1893;52.526;13.360;2023-08-07T15:11:14;19.10;99.90
3756;DHT22;1893;52.526;13.360;2023-08-07T15:13:40;19.20;99.90
3756;DHT22;1893;52.526;13.360;2023-08-07T15:16:06;19.30;99.90
3756;DHT22;1893;52.526;13.360;2023-08-07T15:18:31;19.40;99.90
3756;DHT22;1893;52.526;13.360;2023-08-07T15:20:59;19.40;99.90
3756;DHT22;1893;52.526;13.360;2023-08-07T15:23:26;19.40;99.90
3756;DHT22;1893;52.526;13.360;2023-08-07T15:25:52;19.20;99.90
3756;DHT22;1893;52.526;13.360;2023-08-07T15:28:18;19.10;99.90
3756;DHT22;1893;52.526;13.360;2023-08-07T15:30:50;19.00;99.90
3756;DHT22;1893;52.526;13.360;2023-08-07T15:33:17;19.00;99.90
3756;DHT22;1893;52.526;13.360;2023-08-07T15:35:43;19.00;99.90
3756;DHT22;1893;52.526;13.360;2023-08-07T15:38:09;19.20;99.90
3756;DHT22;1893;52.526;13.360;2023-08-07T15:40:41;19.40;99.90
3756;DHT22;1893;52.526;13.360;2023-08-07T15:43:09;19.50;99.90
3756;DHT22;1893;52.526;13.360;2023-08-07T15:45:36;19.40;99.90
3756;DHT22;1893;52.526;13.360;2023-08-07T15:48:02;19.40;99.90
3756;DHT22;1893;52.526;13.360;2023-08-07T15:50:28;19.40;99.90
3756;DHT22;1893;52.526;13.360;2023-08-07T15:52:54;19.30;99.90